createdAt,value
2023-03-04T00:00:30.657Z,4.77
2023-03-04T00:02:57.580Z,6.53
2023-03-04T00:05:24.482Z,6.20
2023-03-04T00:07:51.404Z,6.20
2023-03-04T00:10:18.369Z,6.20
2023-03-04T00:12:45.263Z,5.53
2023-03-04T00:15:12.266Z,5.33
2023-03-04T00:17:39.149Z,5.87
2023-03-04T00:20:06.849Z,5.17
2023-03-04T00:22:33.790Z,5.57
2023-03-04T00:25:00.689Z,5.37
2023-03-04T00:27:27.557Z,5.87
2023-03-04T00:29:54.433Z,5.50
2023-03-04T00:32:21.380Z,5.47
2023-03-04T00:34:48.328Z,5.53
2023-03-04T00:37:15.302Z,4.93
2023-03-04T00:39:42.187Z,4.80
2023-03-04T00:42:09.326Z,5.53
2023-03-04T00:44:38.815Z,6.10
2023-03-04T00:47:05.714Z,5.00
2023-03-04T00:49:32.597Z,4.90
2023-03-04T00:51:59.475Z,5.60
2023-03-04T00:54:27.250Z,5.50
2023-03-04T00:56:54.135Z,5.23
2023-03-04T00:59:21.029Z,4.23
2023-03-04T01:01:47.904Z,5.27
2023-03-04T01:04:14.789Z,4.40
2023-03-04T01:06:41.710Z,4.27
2023-03-04T01:09:08.625Z,5.33
2023-03-04T01:11:36.309Z,4.30
2023-03-04T01:14:03.326Z,5.07
2023-03-04T01:16:30.265Z,5.27
2023-03-04T01:18:57.253Z,4.60
2023-03-04T01:21:24.165Z,3.43
2023-03-04T01:23:51.066Z,4.17
2023-03-04T01:26:18.805Z,5.07
2023-03-04T01:28:47.474Z,5.23
2023-03-04T01:31:14.484Z,5.37
2023-03-04T01:33:41.453Z,4.30
2023-03-04T01:36:10.262Z,3.57
2023-03-04T01:38:37.150Z,3.60
2023-03-04T01:41:04.449Z,4.00
2023-03-04T01:43:32.219Z,3.37
2023-03-04T01:45:59.446Z,4.60
2023-03-04T01:48:36.488Z,6.00
2023-03-04T01:51:12.651Z,5.00
2023-03-04T01:53:39.729Z,3.80
2023-03-04T01:56:20.980Z,4.07
2023-03-04T01:59:14.974Z,4.07
2023-03-04T02:01:46.609Z,3.70
2023-03-04T02:04:15.979Z,3.53
2023-03-04T02:06:44.250Z,3.23
2023-03-04T02:09:11.480Z,4.47
2023-03-04T02:11:40.429Z,3.20
2023-03-04T02:14:08.099Z,3.70
2023-03-04T02:16:35.176Z,3.30
2023-03-04T02:19:02.653Z,3.70
2023-03-04T02:21:32.513Z,3.30
2023-03-04T02:24:47.478Z,3.67
2023-03-04T02:27:14.582Z,3.67
2023-03-04T02:29:41.607Z,3.90
2023-03-04T02:32:12.190Z,3.17
2023-03-04T02:34:49.367Z,3.20
2023-03-04T02:37:18.952Z,3.90
2023-03-04T02:39:48.847Z,2.57
2023-03-04T02:42:16.790Z,2.70
2023-03-04T02:44:47.617Z,3.40
2023-03-04T02:47:20.391Z,3.80
2023-03-04T02:49:49.370Z,3.43
2023-03-04T02:52:26.757Z,4.27
2023-03-04T02:54:53.768Z,3.80
2023-03-04T02:57:20.743Z,2.87
2023-03-04T02:59:52.549Z,3.60
2023-03-04T03:02:22.831Z,3.07
2023-03-04T03:04:49.733Z,3.63
2023-03-04T03:07:19.092Z,2.97
2023-03-04T03:09:46.231Z,3.10
2023-03-04T03:12:13.125Z,3.83
2023-03-04T03:14:40.126Z,2.90
2023-03-04T03:17:10.399Z,3.47
2023-03-04T03:19:37.291Z,3.77
2023-03-04T03:22:06.538Z,4.07
2023-03-04T03:24:33.649Z,2.73
2023-03-04T03:27:00.525Z,3.37
2023-03-04T03:29:27.528Z,3.00
2023-03-04T03:31:54.565Z,3.47
2023-03-04T03:34:21.502Z,2.97
2023-03-04T03:36:49.286Z,3.27
2023-03-04T03:39:16.276Z,3.23
2023-03-04T03:41:43.293Z,4.13
2023-03-04T03:44:10.185Z,3.30
2023-03-04T03:46:37.047Z,3.23
2023-03-04T03:49:03.962Z,3.50
2023-03-04T03:51:30.820Z,2.93
2023-03-04T03:53:57.678Z,3.23
2023-03-04T03:56:24.620Z,2.80
2023-03-04T03:58:51.489Z,2.80
2023-03-04T04:01:19.396Z,3.33
2023-03-04T04:03:46.455Z,3.13
2023-03-04T04:06:13.407Z,3.90
2023-03-04T04:08:40.355Z,4.07
2023-03-04T04:11:09.880Z,2.97
2023-03-04T04:13:39.173Z,2.30
2023-03-04T04:16:07.056Z,4.93
2023-03-04T04:18:33.935Z,2.90
2023-03-04T04:21:00.849Z,2.50
2023-03-04T04:23:27.741Z,3.17
2023-03-04T04:25:58.295Z,2.30
2023-03-04T04:28:25.517Z,3.20
2023-03-04T04:30:52.500Z,2.70
2023-03-04T04:33:19.474Z,2.60
2023-03-04T04:35:46.404Z,2.43
2023-03-04T04:38:13.347Z,3.07
2023-03-04T04:40:40.244Z,2.57
2023-03-04T04:43:07.192Z,3.00
2023-03-04T04:45:34.642Z,3.10
2023-03-04T04:48:01.525Z,3.03
2023-03-04T04:50:28.872Z,2.67
2023-03-04T04:52:56.697Z,3.53
2023-03-04T04:55:23.585Z,3.20
2023-03-04T04:57:50.456Z,2.90
2023-03-04T05:00:19.028Z,3.20
2023-03-04T05:02:46.261Z,3.03
2023-03-04T05:05:13.160Z,3.30
2023-03-04T05:07:40.042Z,2.67
2023-03-04T05:10:07.433Z,2.90
2023-03-04T05:12:34.318Z,3.40
2023-03-04T05:15:01.220Z,2.73
2023-03-04T05:17:28.107Z,2.77
2023-03-04T05:19:55.029Z,3.17
2023-03-04T05:22:21.912Z,2.80
2023-03-04T05:24:48.805Z,2.20
2023-03-04T05:27:15.674Z,2.77
2023-03-04T05:29:44.679Z,2.40
2023-03-04T05:32:11.665Z,2.60
2023-03-04T05:34:38.584Z,2.70
2023-03-04T05:37:05.484Z,2.77
2023-03-04T05:39:32.370Z,2.70
2023-03-04T05:41:59.256Z,2.73
2023-03-04T05:44:26.243Z,2.37
2023-03-04T05:46:53.310Z,2.90
2023-03-04T05:49:20.376Z,3.13
2023-03-04T05:51:47.274Z,2.10
2023-03-04T05:54:14.137Z,2.40
2023-03-04T05:56:41.068Z,1.97
2023-03-04T05:59:08.014Z,2.13
2023-03-04T06:01:34.990Z,2.60
2023-03-04T06:04:01.917Z,1.97
2023-03-04T06:06:28.962Z,3.00
2023-03-04T06:08:55.971Z,2.20
2023-03-04T06:11:22.850Z,2.30
2023-03-04T06:13:49.771Z,2.10
2023-03-04T06:16:16.782Z,2.43
2023-03-04T06:18:43.701Z,1.90
2023-03-04T06:21:10.585Z,2.00
2023-03-04T06:23:37.492Z,2.30
2023-03-04T06:26:05.760Z,2.47
2023-03-04T06:28:32.634Z,2.50
2023-03-04T06:30:59.563Z,2.00
2023-03-04T06:33:26.559Z,2.63
2023-03-04T06:35:57.370Z,2.73
2023-03-04T06:38:25.583Z,3.00
2023-03-04T06:40:53.530Z,3.00
2023-03-04T06:43:21.164Z,3.83
2023-03-04T06:45:48.199Z,3.23
2023-03-04T06:48:15.087Z,2.30
2023-03-04T06:50:42.037Z,2.70
2023-03-04T06:53:08.927Z,3.20
2023-03-04T06:55:35.852Z,3.83
2023-03-04T06:58:02.755Z,3.63
2023-03-04T07:00:29.827Z,4.53
2023-03-04T07:02:59.387Z,3.90
2023-03-04T07:05:26.763Z,3.63
2023-03-04T07:07:53.708Z,3.30
2023-03-04T07:10:20.811Z,3.40
2023-03-04T07:12:47.893Z,4.30
2023-03-04T07:15:15.149Z,4.87
2023-03-04T07:17:42.032Z,3.87
2023-03-04T07:20:09.803Z,3.87
2023-03-04T07:22:36.771Z,3.37
2023-03-04T07:25:04.961Z,4.20
2023-03-04T07:27:31.866Z,4.17
2023-03-04T07:29:58.774Z,3.50
2023-03-04T07:32:25.812Z,4.60
2023-03-04T07:34:52.690Z,4.07
2023-03-04T07:37:19.595Z,4.23
2023-03-04T07:39:46.465Z,4.43
2023-03-04T07:42:13.405Z,5.03
2023-03-04T07:44:42.401Z,4.53
2023-03-04T07:47:09.295Z,4.77
2023-03-04T07:49:36.628Z,4.80
2023-03-04T07:52:05.759Z,4.70
2023-03-04T07:54:33.132Z,4.47
2023-03-04T07:57:00.123Z,4.13
2023-03-04T07:59:27.033Z,5.10
2023-03-04T08:01:53.951Z,4.40
2023-03-04T08:04:20.836Z,4.97
2023-03-04T08:06:48.827Z,5.63
2023-03-04T08:09:15.794Z,5.20
2023-03-04T08:11:43.531Z,4.30
2023-03-04T08:14:12.988Z,5.10
2023-03-04T08:16:39.975Z,4.57
2023-03-04T08:19:07.388Z,5.50
2023-03-04T08:21:34.878Z,4.47
2023-03-04T08:24:08.002Z,4.90
2023-03-04T08:26:47.895Z,5.10
2023-03-04T08:29:23.086Z,4.37
2023-03-04T08:31:51.594Z,4.40
2023-03-04T08:34:21.295Z,4.20
2023-03-04T08:36:48.517Z,4.17
2023-03-04T08:39:17.935Z,5.00
2023-03-04T08:41:46.127Z,5.53
2023-03-04T08:44:13.406Z,4.97
2023-03-04T08:46:42.956Z,5.17
2023-03-04T08:49:12.887Z,4.40
2023-03-04T08:51:39.841Z,4.27
2023-03-04T08:54:06.780Z,4.30
2023-03-04T08:56:33.718Z,4.57
2023-03-04T08:59:00.664Z,4.07
2023-03-04T09:01:27.672Z,5.23
2023-03-04T09:03:54.745Z,4.80
2023-03-04T09:06:21.672Z,5.63
2023-03-04T09:08:48.560Z,5.20
2023-03-04T09:11:15.937Z,5.53
2023-03-04T09:13:42.842Z,5.63
2023-03-04T09:16:14.841Z,4.40
2023-03-04T09:18:42.792Z,5.00
2023-03-04T09:21:10.461Z,3.80
2023-03-04T09:23:38.353Z,4.57
2023-03-04T09:26:37.714Z,4.20
2023-03-04T09:29:04.698Z,3.67
2023-03-04T09:31:31.751Z,4.63
2023-03-04T09:34:00.016Z,4.47
2023-03-04T09:36:27.126Z,3.40
2023-03-04T09:38:54.006Z,3.47
2023-03-04T09:41:25.778Z,4.00
2023-03-04T09:43:54.398Z,3.63
2023-03-04T09:46:36.432Z,7.23
2023-03-04T09:49:05.984Z,5.30
2023-03-04T09:52:03.895Z,4.67
2023-03-04T09:55:15.605Z,4.30
2023-03-04T09:58:03.594Z,4.67
2023-03-04T10:00:44.722Z,3.70
2023-03-04T10:03:18.804Z,4.33
2023-03-04T10:05:55.692Z,4.37
2023-03-04T10:08:39.977Z,4.63
2023-03-04T10:11:23.592Z,3.73
2023-03-04T10:14:21.117Z,4.00
2023-03-04T10:17:13.595Z,4.40
2023-03-04T10:20:07.335Z,4.37
2023-03-04T10:22:45.271Z,4.10
2023-03-04T10:25:29.899Z,4.13
2023-03-04T10:28:05.182Z,4.57
2023-03-04T10:31:05.422Z,4.03
2023-03-04T10:33:35.895Z,4.50
2023-03-04T10:36:30.463Z,4.50
2023-03-04T10:39:07.631Z,3.90
2023-03-04T10:41:34.876Z,3.90
2023-03-04T10:44:08.928Z,3.83
2023-03-04T10:46:48.264Z,4.33
2023-03-04T10:49:20.046Z,4.60
2023-03-04T10:52:15.789Z,5.07
2023-03-04T10:54:52.985Z,4.60
2023-03-04T10:57:25.430Z,4.37
2023-03-04T11:00:34.708Z,4.20
2023-03-04T11:03:30.866Z,4.10
2023-03-04T11:06:19.329Z,3.60
2023-03-04T11:08:58.258Z,4.17
2023-03-04T11:11:40.027Z,3.83
2023-03-04T11:14:38.283Z,4.70
2023-03-04T11:17:42.387Z,4.60
2023-03-04T11:20:35.607Z,4.00
2023-03-04T11:23:17.262Z,5.03
2023-03-04T11:26:10.268Z,3.30
2023-03-04T11:28:56.872Z,4.00
2023-03-04T11:31:39.809Z,3.90
2023-03-04T11:34:46.801Z,4.50
2023-03-04T11:37:48.918Z,4.43
2023-03-04T11:40:28.036Z,4.43
2023-03-04T11:43:02.796Z,3.53
2023-03-04T11:46:14.765Z,4.17
2023-03-04T11:49:02.623Z,4.83
2023-03-04T11:52:11.229Z,4.40
2023-03-04T11:55:18.560Z,4.50
2023-03-04T11:58:34.957Z,4.33
2023-03-04T12:01:27.145Z,4.83
2023-03-04T12:04:33.557Z,3.63
2023-03-04T12:07:54.181Z,5.10
2023-03-04T12:11:01.675Z,4.80
2023-03-04T12:14:09.376Z,4.23
2023-03-04T12:17:27.023Z,4.53
2023-03-04T12:20:35.169Z,5.27
2023-03-04T12:23:35.289Z,4.90
2023-03-04T12:26:38.619Z,4.00
2023-03-04T12:29:20.274Z,4.77
2023-03-04T12:31:54.313Z,4.20
2023-03-04T12:34:48.128Z,4.33
2023-03-04T12:37:40.915Z,4.10
2023-03-04T12:40:35.297Z,4.20
2023-03-04T12:43:09.868Z,4.70
2023-03-04T12:46:18.971Z,6.00
2023-03-04T12:49:23.054Z,5.10
2023-03-04T12:52:16.730Z,4.47
2023-03-04T12:54:48.176Z,4.90
2023-03-04T12:57:23.279Z,4.23
2023-03-04T13:00:13.035Z,5.30
2023-03-04T13:03:01.660Z,4.50
2023-03-04T13:06:15.394Z,4.40
2023-03-04T13:08:58.314Z,4.00
2023-03-04T13:11:31.298Z,4.77
2023-03-04T13:14:09.564Z,4.10
2023-03-04T13:16:46.888Z,4.17
2023-03-04T13:19:51.149Z,3.30
2023-03-04T13:22:34.373Z,3.90
2023-03-04T13:25:31.451Z,5.17
2023-03-04T13:28:10.097Z,3.50
2023-03-04T13:30:39.492Z,3.37
2023-03-04T13:33:13.501Z,2.10
2023-03-04T13:35:49.000Z,2.07
2023-03-04T13:38:31.072Z,2.10
2023-03-04T13:41:28.348Z,1.80
2023-03-04T13:43:59.431Z,2.33
2023-03-04T13:46:27.511Z,1.80
2023-03-04T13:48:57.120Z,2.83
2023-03-04T13:51:32.251Z,1.50
2023-03-04T13:53:59.018Z,1.47
2023-03-04T13:56:38.957Z,1.90
2023-03-04T13:59:08.530Z,1.40
2023-03-04T14:01:41.404Z,1.70
2023-03-04T14:04:30.941Z,1.50
2023-03-04T14:07:00.312Z,1.97
2023-03-04T14:09:35.319Z,2.03
2023-03-04T14:12:14.376Z,1.93
2023-03-04T14:14:50.624Z,1.90
2023-03-04T14:17:25.497Z,1.80
2023-03-04T14:19:53.995Z,2.50
2023-03-04T14:22:40.141Z,1.60
2023-03-04T14:25:31.574Z,1.60
2023-03-04T14:28:12.355Z,1.40
2023-03-04T14:30:43.616Z,1.23
2023-03-04T14:33:19.392Z,2.07
2023-03-04T14:35:50.173Z,1.93
2023-03-04T14:38:35.411Z,1.60
2023-03-04T14:41:08.380Z,1.73
2023-03-04T14:43:59.734Z,1.70
2023-03-04T14:46:34.341Z,2.73
2023-03-04T14:49:01.427Z,2.30
2023-03-04T14:51:41.627Z,2.60
2023-03-04T14:54:33.709Z,1.53
2023-03-04T14:57:24.764Z,2.10
2023-03-04T14:59:52.746Z,1.87
2023-03-04T15:02:38.066Z,1.73
2023-03-04T15:05:17.519Z,1.60
2023-03-04T15:07:50.841Z,1.80
2023-03-04T15:10:27.747Z,1.53
2023-03-04T15:13:00.920Z,2.13
2023-03-04T15:15:42.079Z,1.77
2023-03-04T15:18:27.524Z,1.77
2023-03-04T15:21:28.732Z,1.57
2023-03-04T15:23:55.616Z,1.40
2023-03-04T15:26:22.513Z,1.23
2023-03-04T15:28:49.448Z,1.10
2023-03-04T15:31:20.313Z,0.93
2023-03-04T15:33:47.944Z,1.40
2023-03-04T15:36:19.936Z,1.00
2023-03-04T15:38:50.899Z,1.00
2023-03-04T15:41:26.722Z,0.90
2023-03-04T15:43:54.746Z,0.97
2023-03-04T15:46:22.305Z,1.20
2023-03-04T15:48:50.089Z,0.87
2023-03-04T15:51:22.313Z,1.13
2023-03-04T15:53:52.829Z,1.10
2023-03-04T15:56:23.665Z,1.27
2023-03-04T15:58:56.276Z,1.07
2023-03-04T16:01:24.539Z,1.73
2023-03-04T16:03:53.597Z,1.30
2023-03-04T16:06:23.356Z,1.60
2023-03-04T16:08:51.851Z,1.40
2023-03-04T16:11:23.241Z,1.37
2023-03-04T16:13:50.460Z,1.10
2023-03-04T16:16:17.767Z,1.20
2023-03-04T16:18:45.158Z,1.43
2023-03-04T16:21:16.281Z,1.77
2023-03-04T16:23:46.838Z,1.30
2023-03-04T16:26:17.684Z,1.77
2023-03-04T16:28:44.893Z,1.20
2023-03-04T16:31:13.555Z,1.80
2023-03-04T16:33:41.199Z,1.10
2023-03-04T16:36:25.806Z,0.97
2023-03-04T16:38:55.540Z,1.77
2023-03-04T16:41:30.602Z,1.37
2023-03-04T16:44:00.841Z,1.73
2023-03-04T16:46:28.197Z,2.00
2023-03-04T16:48:55.466Z,2.13
2023-03-04T16:51:23.448Z,1.70
2023-03-04T16:54:00.209Z,1.90
2023-03-04T16:56:29.315Z,1.90
2023-03-04T16:58:56.252Z,1.43
2023-03-04T17:01:27.138Z,1.93
2023-03-04T17:03:55.150Z,1.57
2023-03-04T17:06:23.359Z,1.30
2023-03-04T17:08:50.274Z,1.50
2023-03-04T17:11:20.887Z,2.10
2023-03-04T17:13:48.995Z,1.80
2023-03-04T17:16:16.284Z,2.00
2023-03-04T17:18:44.296Z,1.93
2023-03-04T17:21:14.683Z,1.60
2023-03-04T17:23:41.642Z,2.40
2023-03-04T17:26:09.348Z,2.50
2023-03-04T17:28:36.787Z,2.90
2023-03-04T17:31:14.135Z,12.00
2023-03-04T17:33:41.315Z,10.73
2023-03-04T17:36:11.342Z,9.10
2023-03-04T17:38:39.244Z,6.70
2023-03-04T17:41:10.935Z,6.00
2023-03-04T17:43:37.854Z,5.10
2023-03-04T17:46:12.663Z,4.80
2023-03-04T17:48:39.945Z,4.07
2023-03-04T17:51:06.858Z,3.93
2023-03-04T17:53:33.828Z,5.00
2023-03-04T17:56:03.997Z,4.40
2023-03-04T17:58:33.645Z,4.70
2023-03-04T18:01:21.246Z,4.93
2023-03-04T18:03:48.658Z,5.57
2023-03-04T18:06:17.021Z,5.57
2023-03-04T18:08:44.487Z,5.20
2023-03-04T18:11:12.039Z,4.10
2023-03-04T18:13:40.575Z,3.90
2023-03-04T18:16:11.948Z,4.77
2023-03-04T18:18:38.996Z,5.00
2023-03-04T18:21:06.115Z,4.27
2023-03-04T18:23:33.552Z,5.03
2023-03-04T18:26:01.686Z,4.67
2023-03-04T18:28:29.003Z,5.10
2023-03-04T18:30:56.984Z,4.80
2023-03-04T18:33:24.134Z,5.10
2023-03-04T18:35:51.013Z,4.17
2023-03-04T18:38:17.936Z,4.67
2023-03-04T18:40:44.845Z,5.70
2023-03-04T18:43:11.798Z,10.13
2023-03-04T18:45:38.714Z,9.77
2023-03-04T18:48:06.012Z,10.93
2023-03-04T18:50:32.944Z,7.57
2023-03-04T18:52:59.832Z,5.07
2023-03-04T18:55:26.861Z,4.90
2023-03-04T18:57:57.944Z,5.53
2023-03-04T19:00:25.324Z,5.50
2023-03-04T19:03:06.918Z,5.30
2023-03-04T19:05:34.367Z,5.50
2023-03-04T19:08:01.587Z,6.33
2023-03-04T19:10:29.098Z,7.53
2023-03-04T19:12:57.517Z,9.33
2023-03-04T19:15:24.770Z,8.90
2023-03-04T19:17:51.966Z,11.60
2023-03-04T19:20:19.161Z,9.50
2023-03-04T19:22:46.221Z,12.10
2023-03-04T19:25:13.189Z,9.07
2023-03-04T19:27:40.187Z,10.27
2023-03-04T19:30:08.005Z,11.00
2023-03-04T19:32:34.945Z,10.27
2023-03-04T19:35:02.063Z,8.60
2023-03-04T19:37:29.060Z,9.27
2023-03-04T19:39:56.084Z,5.70
2023-03-04T19:42:24.164Z,5.60
2023-03-04T19:44:51.239Z,5.70
2023-03-04T19:47:18.178Z,6.37
2023-03-04T19:49:45.094Z,9.33
2023-03-04T19:52:11.981Z,9.97
2023-03-04T19:54:38.918Z,9.57
2023-03-04T19:57:05.796Z,9.50
2023-03-04T19:59:32.689Z,7.90
2023-03-04T20:02:01.246Z,8.50
2023-03-04T20:04:28.247Z,7.87
2023-03-04T20:06:55.146Z,7.60
2023-03-04T20:09:22.702Z,7.07
2023-03-04T20:11:59.158Z,8.30
2023-03-04T20:14:27.692Z,10.30
2023-03-04T20:16:58.717Z,9.20
2023-03-04T20:19:25.623Z,9.37
2023-03-04T20:21:52.640Z,9.23
2023-03-04T20:24:20.030Z,9.23
2023-03-04T20:26:46.947Z,7.60
2023-03-04T20:29:13.846Z,7.90
2023-03-04T20:31:40.747Z,7.03
2023-03-04T20:34:08.790Z,6.40
2023-03-04T20:36:36.076Z,6.10
2023-03-04T20:39:10.202Z,7.57
2023-03-04T20:41:42.255Z,5.67
2023-03-04T20:44:09.215Z,6.00
2023-03-04T20:46:46.017Z,5.87
2023-03-04T20:49:22.209Z,6.13
2023-03-04T20:51:51.007Z,6.13
2023-03-04T20:54:17.915Z,6.27
2023-03-04T20:56:44.969Z,6.37
2023-03-04T20:59:12.559Z,6.47
2023-03-04T21:01:42.415Z,6.93
2023-03-04T21:04:09.506Z,5.50
2023-03-04T21:06:38.567Z,5.80
2023-03-04T21:09:09.127Z,4.30
2023-03-04T21:11:40.317Z,5.03
2023-03-04T21:14:22.741Z,6.40
2023-03-04T21:16:52.552Z,4.50
2023-03-04T21:19:23.601Z,5.77
2023-03-04T21:21:52.152Z,4.97
2023-03-04T21:24:24.133Z,5.20
2023-03-04T21:26:51.212Z,5.67
2023-03-04T21:29:21.639Z,4.50
2023-03-04T21:32:09.665Z,4.70
2023-03-04T21:34:48.390Z,4.70
2023-03-04T21:37:15.341Z,5.10
2023-03-04T21:39:42.248Z,4.67
2023-03-04T21:42:09.150Z,5.40
2023-03-04T21:44:48.597Z,4.97
2023-03-04T21:47:16.597Z,4.67
2023-03-04T21:49:43.675Z,4.10
2023-03-04T21:52:10.555Z,4.50
2023-03-04T21:54:37.654Z,3.80
2023-03-04T21:57:04.617Z,3.90
2023-03-04T21:59:31.801Z,4.20
2023-03-04T22:01:58.803Z,3.70
2023-03-04T22:04:25.806Z,4.10
2023-03-04T22:06:52.699Z,4.60
2023-03-04T22:09:19.695Z,4.60
2023-03-04T22:11:46.575Z,3.90
2023-03-04T22:14:13.556Z,3.80
2023-03-04T22:16:54.120Z,3.27
2023-03-04T22:19:23.605Z,3.60
2023-03-04T22:21:51.534Z,3.27
2023-03-04T22:24:19.015Z,3.00
2023-03-04T22:26:45.994Z,3.17
2023-03-04T22:29:12.910Z,3.37
2023-03-04T22:31:40.016Z,3.23
2023-03-04T22:34:10.948Z,2.47
2023-03-04T22:36:44.831Z,3.37
2023-03-04T22:39:15.969Z,3.23
2023-03-04T22:41:42.890Z,3.40
2023-03-04T22:44:09.808Z,3.10
2023-03-04T22:46:39.062Z,3.60
2023-03-04T22:49:12.081Z,3.53
2023-03-04T22:51:41.726Z,3.37
2023-03-04T22:54:11.858Z,4.23
2023-03-04T22:56:39.237Z,3.50
2023-03-04T22:59:06.546Z,3.67
2023-03-04T23:01:33.718Z,2.80
2023-03-04T23:04:00.692Z,3.50
2023-03-04T23:06:30.204Z,3.07
2023-03-04T23:08:58.052Z,3.60
2023-03-04T23:11:31.252Z,3.27
2023-03-04T23:13:58.282Z,3.30
2023-03-04T23:16:27.802Z,2.70
2023-03-04T23:18:54.811Z,2.50
2023-03-04T23:21:25.308Z,2.20
2023-03-04T23:23:53.019Z,2.27
2023-03-04T23:26:23.850Z,2.60
2023-03-04T23:28:51.327Z,2.60
2023-03-04T23:31:18.870Z,2.57
2023-03-04T23:33:47.794Z,2.00
2023-03-04T23:36:17.796Z,2.07
2023-03-04T23:38:47.156Z,2.10
2023-03-04T23:41:18.189Z,2.47
2023-03-04T23:43:45.928Z,1.60
2023-03-04T23:46:13.523Z,1.57
2023-03-04T23:48:48.441Z,2.07
2023-03-04T23:51:28.207Z,3.80
2023-03-04T23:53:55.868Z,1.90
2023-03-04T23:56:26.074Z,1.83
2023-03-04T23:58:53.570Z,2.37
